Time;durP1;ratioP1;P1;durP2;ratioP2;P2;SDS_P1;SDS_P2;PMS_P1;PMS_P2;Temp;Humidity;BMP_temperature;BMP_pressure;BME280_temperature;BME280_humidity;BME280_pressure;Samples;Min_cycle;Max_cycle;Signal;HPM_P1;HPM_P2
2022/09/27 00:02:07;;;;;;;7.65;1.50;;;10.30;99.90;;;;;;5000486;28;89774;-34
2022/09/27 00:04:33;;;;;;;3.00;1.33;;;10.30;99.90;;;;;;4999821;28;90385;-31
2022/09/27 00:06:59;;;;;;;2.78;1.15;;;10.30;99.90;;;;;;4999865;28;89069;-33
2022/09/27 00:09:25;;;;;;;11.15;1.52;;;10.20;99.90;;;;;;5001004;28;89796;-31
2022/09/27 00:11:50;;;;;;;9.20;1.85;;;10.20;99.90;;;;;;4999748;28;89485;-30
2022/09/27 00:14:17;;;;;;;3.63;1.42;;;10.10;99.90;;;;;;5000292;28;90556;-33
2022/09/27 00:16:43;;;;;;;7.15;1.85;;;10.10;99.90;;;;;;4999833;28;90286;-30
2022/09/27 00:19:17;;;;;;;4.97;2.10;;;10.10;99.90;;;;;;4999762;28;89869;-28
2022/09/27 00:21:45;;;;;;;5.90;1.55;;;10.00;99.90;;;;;;5000619;28;89912;-30
2022/09/27 00:24:16;;;;;;;6.10;1.33;;;10.00;99.90;;;;;;4999958;28;89563;-29
2022/09/27 00:26:42;;;;;;;7.38;1.50;;;10.00;99.90;;;;;;5000421;28;87883;-29
2022/09/27 00:29:09;;;;;;;5.72;1.85;;;9.90;99.90;;;;;;4999526;28;90154;-29
2022/09/27 00:31:36;;;;;;;8.23;1.43;;;9.90;99.90;;;;;;4999986;28;89937;-28
2022/09/27 00:34:03;;;;;;;3.22;1.88;;;9.90;99.90;;;;;;5000321;28;88911;-31
2022/09/27 00:36:30;;;;;;;3.05;1.38;;;9.90;99.90;;;;;;4999624;28;90302;-28
2022/09/27 00:38:58;;;;;;;3.63;1.45;;;9.80;99.90;;;;;;4999383;28;91053;-31
2022/09/27 00:41:31;;;;;;;9.77;2.55;;;9.80;99.90;;;;;;4998649;28;89849;-31
2022/09/27 00:44:03;;;;;;;4.32;1.73;;;9.70;99.90;;;;;;5000098;28;90260;-30
2022/09/27 00:46:36;;;;;;;3.38;1.88;;;9.80;99.90;;;;;;5024998;22;89978;-30
2022/09/27 00:49:20;;;;;;;8.90;1.70;;;9.70;99.90;;;;;;4980117;28;89332;-32
2022/09/27 00:51:52;;;;;;;3.42;2.05;;;9.70;99.90;;;;;;4979178;28;88412;-30
2022/09/27 00:54:18;;;;;;;5.20;2.10;;;9.70;99.90;;;;;;4979650;28;89708;-32
2022/09/27 00:56:45;;;;;;;15.82;2.63;;;9.60;99.90;;;;;;4979810;28;88114;-33
2022/09/27 00:59:14;;;;;;;8.55;1.58;;;9.60;99.90;;;;;;4979504;28;89871;-33
2022/09/27 01:01:40;;;;;;;6.97;2.17;;;9.60;99.90;;;;;;4978998;28;89907;-30
2022/09/27 01:04:11;;;;;;;6.20;1.90;;;9.60;99.90;;;;;;4980071;28;88514;-29
2022/09/27 01:06:37;;;;;;;4.35;1.77;;;9.60;99.90;;;;;;4979724;28;90381;-30
2022/09/27 01:09:07;;;;;;;10.35;1.67;;;9.60;99.90;;;;;;4979654;28;90582;-33
2022/09/27 01:11:45;;;;;;;4.75;1.35;;;9.60;99.90;;;;;;4979002;28;89698;-29
2022/09/27 01:14:32;;;;;;;1.63;1.23;;;9.60;99.90;;;;;;4978962;28;89196;-31
2022/09/27 01:17:06;;;;;;;10.57;1.90;;;9.60;99.90;;;;;;4979312;28;89726;-31
2022/09/27 01:19:56;;;;;;;4.47;1.45;;;9.60;99.90;;;;;;4979815;28;90388;-31
2022/09/27 01:22:41;;;;;;;2.90;1.13;;;9.60;99.90;;;;;;4979375;28;88889;-29
2022/09/27 01:25:18;;;;;;;6.63;1.90;;;9.50;99.90;;;;;;4979077;28;89613;-31
2022/09/27 01:28:15;;;;;;;4.68;1.63;;;9.50;99.90;;;;;;4978769;28;88097;-32
2022/09/27 01:31:11;;;;;;;3.28;1.05;;;9.50;99.90;;;;;;4978907;28;90451;-30
2022/09/27 01:33:37;;;;;;;7.85;1.25;;;9.50;99.90;;;;;;4945195;28;90881;-33
2022/09/27 01:36:28;;;;;;;7.20;1.30;;;9.50;99.90;;;;;;4979228;28;90378;-30
2022/09/27 01:39:21;;;;;;;1.65;1.15;;;9.50;99.90;;;;;;4978956;28;89288;-33
2022/09/27 01:41:57;;;;;;;4.75;0.90;;;9.50;99.90;;;;;;4937734;28;90017;-32
2022/09/27 01:44:33;;;;;;;2.75;1.20;;;9.50;99.90;;;;;;4978780;28;90370;-31
2022/09/27 01:47:08;;;;;;;4.43;0.90;;;9.50;99.90;;;;;;4992460;28;89178;-31
2022/09/27 01:49:51;;;;;;;5.60;1.30;;;9.50;99.90;;;;;;4998905;28;90016;-31
2022/09/27 01:52:21;;;;;;;2.55;1.00;;;9.50;99.90;;;;;;4998997;28;89031;-30
2022/09/27 01:54:53;;;;;;;3.13;1.20;;;9.40;99.90;;;;;;4989746;28;89901;-28
2022/09/27 01:57:23;;;;;;;3.90;1.17;;;9.40;99.90;;;;;;4995933;28;89475;-31
2022/09/27 01:59:55;;;;;;;3.63;1.50;;;9.40;99.90;;;;;;4991833;28;89982;-29
2022/09/27 02:02:25;;;;;;;3.58;1.52;;;9.40;99.90;;;;;;4990188;28;91320;-32
2022/09/27 02:04:54;;;;;;;1.40;0.90;;;9.30;99.90;;;;;;4998314;28;91106;-31
2022/09/27 02:07:26;;;;;;;4.90;1.35;;;9.30;99.90;;;;;;4998474;28;89524;-31
2022/09/27 02:09:56;;;;;;;2.65;1.13;;;9.40;99.90;;;;;;4999689;28;88722;-30
2022/09/27 02:12:30;;;;;;;9.82;1.73;;;9.40;99.90;;;;;;4999672;28;90099;-30
2022/09/27 02:14:58;;;;;;;2.35;1.10;;;9.40;99.90;;;;;;5001874;28;89623;-29
2022/09/27 02:17:54;;;;;;;3.25;0.68;;;9.40;99.90;;;;;;5001452;28;89040;-31
2022/09/27 02:20:30;;;;;;;2.30;1.35;;;9.40;99.90;;;;;;5002520;28;88622;-29
2022/09/27 02:23:21;;;;;;;3.53;1.40;;;9.40;99.90;;;;;;4995500;28;90609;-31
2022/09/27 02:26:42;;;;;;;1.63;0.82;;;9.40;99.90;;;;;;4996661;28;90356;-29
2022/09/27 02:29:32;;;;;;;2.58;1.42;;;9.50;99.90;;;;;;4996222;28;90647;-31
2022/09/27 02:31:57;;;;;;;4.30;1.30;;;9.50;99.90;;;;;;5002299;28;89060;-32
2022/09/27 02:34:27;;;;;;;2.63;1.20;;;9.50;99.90;;;;;;5001024;28;90737;-29
2022/09/27 02:36:54;;;;;;;6.93;1.10;;;9.50;99.90;;;;;;5001335;28;89625;-32
2022/09/27 02:39:20;;;;;;;1.75;0.98;;;9.50;99.90;;;;;;5001313;28;89103;-33
2022/09/27 02:41:46;;;;;;;4.03;1.38;;;9.60;99.90;;;;;;5001767;28;88966;-30
2022/09/27 02:44:13;;;;;;;3.72;0.93;;;9.50;99.90;;;;;;5002094;28;89924;-33
2022/09/27 02:47:08;;;;;;;1.70;0.83;;;9.60;99.90;;;;;;5000888;28;88971;-31
2022/09/27 02:50:08;;;;;;;2.78;1.17;;;9.60;99.90;;;;;;5001149;28;89653;-31
2022/09/27 02:52:56;;;;;;;2.22;0.80;;;9.50;99.90;;;;;;5000871;28;89825;-30
2022/09/27 02:55:39;;;;;;;;;;;9.50;99.90;;;;;;5002588;28;89960;-30
2022/09/27 02:58:31;;;;;;;5.18;1.45;;;9.50;99.90;;;;;;5002605;28;89829;-30
2022/09/27 03:01:11;;;;;;;2.88;1.05;;;9.50;99.90;;;;;;5000879;28;90454;-31
2022/09/27 03:04:03;;;;;;;3.70;1.35;;;9.50;99.90;;;;;;5001647;28;87878;-30
2022/09/27 03:06:30;;;;;;;8.32;2.05;;;9.50;99.90;;;;;;5000885;28;90446;-34
2022/09/27 03:08:56;;;;;;;2.50;0.87;;;9.50;99.90;;;;;;5002065;28;89372;-31
2022/09/27 03:11:22;;;;;;;2.80;0.75;;;9.40;99.90;;;;;;5000468;28;89358;-30
2022/09/27 03:13:47;;;;;;;3.08;1.45;;;9.50;99.90;;;;;;5001787;28;89023;-30
2022/09/27 03:16:14;;;;;;;2.22;0.90;;;9.40;99.90;;;;;;5000457;28;90723;-30
2022/09/27 03:18:41;;;;;;;4.38;0.82;;;9.40;99.90;;;;;;5000061;28;90086;-30
2022/09/27 03:21:06;;;;;;;1.75;0.77;;;9.40;99.90;;;;;;5001422;28;89965;-33
2022/09/27 03:23:32;;;;;;;1.58;0.80;;;9.40;99.90;;;;;;4999324;28;88993;-31
2022/09/27 03:25:58;;;;;;;6.43;1.35;;;9.40;99.90;;;;;;5000826;28;90436;-31
2022/09/27 03:28:24;;;;;;;1.30;0.98;;;9.40;99.90;;;;;;5001064;28;89557;-29
2022/09/27 03:30:50;;;;;;;3.53;1.08;;;9.30;99.90;;;;;;5000061;28;90183;-30
2022/09/27 03:33:16;;;;;;;4.03;1.15;;;9.30;99.90;;;;;;5001461;28;87820;-30
2022/09/27 03:35:42;;;;;;;4.53;1.08;;;9.30;99.90;;;;;;4999864;28;92013;-30
2022/09/27 03:38:09;;;;;;;9.52;1.27;;;9.30;99.90;;;;;;5000257;28;89881;-33
2022/09/27 03:40:35;;;;;;;5.93;1.02;;;9.30;99.90;;;;;;5000492;28;89908;-31
2022/09/27 03:43:01;;;;;;;1.88;0.73;;;9.20;99.90;;;;;;4999981;28;90438;-32
2022/09/27 03:45:26;;;;;;;4.05;0.93;;;9.20;99.90;;;;;;5000174;28;90293;-31
2022/09/27 03:47:53;;;;;;;2.40;0.65;;;9.20;99.90;;;;;;5000617;28;91118;-29
2022/09/27 03:50:19;;;;;;;1.67;1.02;;;9.30;99.90;;;;;;5000158;28;89669;-30
2022/09/27 03:52:45;;;;;;;1.75;0.80;;;9.20;99.90;;;;;;5001122;28;89775;-29
2022/09/27 03:55:12;;;;;;;3.70;0.77;;;9.20;99.90;;;;;;4999985;28;90657;-29
2022/09/27 03:57:37;;;;;;;0.85;0.85;;;9.20;99.90;;;;;;5000090;28;89011;-30
2022/09/27 04:00:05;;;;;;;1.10;1.00;;;9.20;99.90;;;;;;5000751;28;89320;-32
2022/09/27 04:02:30;;;;;;;4.90;1.17;;;9.20;99.90;;;;;;5000110;28;90264;-32
2022/09/27 04:04:56;;;;;;;7.60;1.02;;;9.10;99.90;;;;;;5000053;28;90218;-33
2022/09/27 04:07:22;;;;;;;1.85;0.82;;;9.10;99.90;;;;;;4999283;28;90047;-29
2022/09/27 04:09:48;;;;;;;2.33;1.08;;;9.10;99.90;;;;;;4999768;28;90362;-32
2022/09/27 04:12:14;;;;;;;2.78;1.00;;;9.10;99.90;;;;;;5000187;28;88009;-30
2022/09/27 04:14:40;;;;;;;2.17;0.70;;;9.10;99.90;;;;;;5000381;28;90186;-30
2022/09/27 04:17:06;;;;;;;2.30;1.13;;;9.00;99.90;;;;;;4999314;28;89494;-32
2022/09/27 04:19:31;;;;;;;2.17;0.70;;;9.00;99.90;;;;;;5000054;28;90012;-28
2022/09/27 04:21:57;;;;;;;3.25;0.70;;;9.00;99.90;;;;;;4999752;28;88939;-32
2022/09/27 04:24:24;;;;;;;1.50;0.93;;;9.00;99.90;;;;;;5000169;28;89994;-30
2022/09/27 04:26:50;;;;;;;6.65;1.70;;;9.00;99.90;;;;;;5000255;28;89457;-31
2022/09/27 04:29:16;;;;;;;0.82;0.63;;;9.00;99.90;;;;;;4999279;28;89383;-31
2022/09/27 04:31:43;;;;;;;1.63;0.88;;;9.00;99.90;;;;;;4999397;28;89800;-31
2022/09/27 04:34:09;;;;;;;1.65;0.73;;;9.00;99.90;;;;;;4998956;28;89563;-30
2022/09/27 04:36:35;;;;;;;2.60;0.70;;;9.00;99.90;;;;;;4998832;28;88161;-33
2022/09/27 04:39:03;;;;;;;1.05;0.88;;;9.00;99.90;;;;;;5000302;28;89598;-31
2022/09/27 04:41:29;;;;;;;2.85;0.88;;;9.00;99.90;;;;;;4999701;28;88928;-30
2022/09/27 04:43:56;;;;;;;1.42;0.75;;;8.90;99.90;;;;;;4999202;28;89679;-29
2022/09/27 04:46:23;;;;;;;9.25;2.22;;;8.90;99.90;;;;;;4998782;28;89421;-29
2022/09/27 04:48:49;;;;;;;3.05;1.50;;;8.90;99.90;;;;;;5000035;28;89674;-31
2022/09/27 04:51:16;;;;;;;3.63;1.65;;;8.90;99.90;;;;;;4999605;28;89665;-28
2022/09/27 04:53:43;;;;;;;1.83;0.80;;;8.90;99.90;;;;;;4999516;28;90677;-33
2022/09/27 04:56:09;;;;;;;0.93;0.82;;;8.90;99.90;;;;;;4998869;28;90188;-31
2022/09/27 04:58:35;;;;;;;2.33;0.88;;;8.90;99.90;;;;;;4999497;28;90817;-30
2022/09/27 05:01:02;;;;;;;1.67;0.75;;;8.90;99.90;;;;;;4999768;28;89781;-33
2022/09/27 05:03:29;;;;;;;1.65;0.90;;;9.00;99.90;;;;;;4999095;28;90445;-30
2022/09/27 05:05:55;;;;;;;6.47;1.52;;;8.90;99.90;;;;;;4998690;28;89293;-30
2022/09/27 05:08:21;;;;;;;1.05;0.75;;;9.00;99.90;;;;;;4999065;28;89442;-31
2022/09/27 05:10:47;;;;;;;2.17;1.48;;;8.90;99.90;;;;;;4999492;28;89543;-28
2022/09/27 05:13:14;;;;;;;3.10;0.95;;;9.00;99.90;;;;;;4999111;28;90407;-31
2022/09/27 05:15:40;;;;;;;2.50;0.80;;;9.00;99.90;;;;;;4974714;28;90064;-29
2022/09/27 05:18:07;;;;;;;3.22;1.30;;;9.00;99.90;;;;;;4958400;28;89478;-30
2022/09/27 05:20:33;;;;;;;3.03;0.80;;;9.00;99.90;;;;;;4961013;28;89718;-30
2022/09/27 05:22:59;;;;;;;0.90;0.80;;;9.00;99.90;;;;;;4966542;28;90397;-31
2022/09/27 05:25:25;;;;;;;2.95;1.27;;;8.90;99.90;;;;;;4961460;28;89883;-31
2022/09/27 05:27:52;;;;;;;3.47;1.15;;;8.90;99.90;;;;;;4959839;28;89437;-30
2022/09/27 05:30:17;;;;;;;1.20;1.10;;;8.90;99.90;;;;;;4979060;28;89664;-31
2022/09/27 05:32:45;;;;;;;1.75;1.05;;;8.90;99.90;;;;;;4972679;28;90095;-30
2022/09/27 05:35:11;;;;;;;16.35;1.48;;;8.90;99.90;;;;;;4971897;28;89751;-32
2022/09/27 05:37:39;;;;;;;1.95;1.00;;;8.80;99.90;;;;;;4976844;28;88945;-30
2022/09/27 05:40:05;;;;;;;2.30;0.70;;;8.90;99.90;;;;;;4979440;28;88370;-31
2022/09/27 05:42:31;;;;;;;4.15;1.02;;;8.80;99.90;;;;;;4977842;28;90239;-30
2022/09/27 05:44:56;;;;;;;1.20;0.82;;;8.80;99.90;;;;;;4978341;28;90485;-28
2022/09/27 05:47:22;;;;;;;2.53;0.82;;;8.80;99.90;;;;;;4996032;28;90486;-30
2022/09/27 05:49:48;;;;;;;1.25;0.70;;;8.80;99.90;;;;;;5002984;28;89279;-34
2022/09/27 05:52:13;;;;;;;5.45;0.95;;;8.80;99.90;;;;;;5001863;28;90029;-32
2022/09/27 05:54:39;;;;;;;9.25;1.10;;;8.80;99.90;;;;;;5001037;28;89808;-34
2022/09/27 05:57:07;;;;;;;9.73;1.15;;;8.80;99.90;;;;;;4984208;28;90023;-29
2022/09/27 05:59:32;;;;;;;4.47;1.00;;;8.80;99.90;;;;;;5001749;28;88258;-31
2022/09/27 06:01:58;;;;;;;1.52;0.80;;;8.80;99.90;;;;;;5002033;28;90748;-29
2022/09/27 06:04:23;;;;;;;6.93;0.88;;;8.80;99.90;;;;;;5002367;28;89082;-28
2022/09/27 06:06:49;;;;;;;2.35;1.00;;;8.90;99.90;;;;;;5001366;28;89666;-29
2022/09/27 06:09:16;;;;;;;1.13;1.00;;;8.90;99.90;;;;;;5002329;28;88110;-30
2022/09/27 06:11:45;;;;;;;10.75;2.08;;;8.90;99.90;;;;;;5001681;28;90376;-36
2022/09/27 06:14:12;;;;;;;1.85;0.68;;;8.90;99.90;;;;;;5001512;28;89967;-30
2022/09/27 06:16:38;;;;;;;3.58;1.00;;;8.90;99.90;;;;;;5001575;28;89442;-31
2022/09/27 06:19:04;;;;;;;2.08;0.40;;;8.90;99.90;;;;;;5001727;28;87684;-31
2022/09/27 06:21:30;;;;;;;5.88;0.80;;;9.00;99.90;;;;;;5001430;28;91627;-31
2022/09/27 06:23:58;;;;;;;1.08;0.95;;;8.90;99.90;;;;;;5001741;28;89201;-31
2022/09/27 06:26:25;;;;;;;0.93;0.73;;;9.00;99.90;;;;;;5001279;28;89416;-31
2022/09/27 06:28:51;;;;;;;4.50;0.88;;;9.00;99.90;;;;;;4995090;28;89625;-29
2022/09/27 06:31:17;;;;;;;1.55;1.20;;;9.00;99.90;;;;;;4999128;28;90639;-29
2022/09/27 06:33:44;;;;;;;0.93;0.73;;;9.00;99.90;;;;;;4999328;28;90791;-30
2022/09/27 06:36:09;;;;;;;2.50;0.98;;;9.00;99.90;;;;;;4999599;28;92117;-30
2022/09/27 06:38:35;;;;;;;1.65;1.02;;;9.00;99.90;;;;;;4999215;28;88614;-30
2022/09/27 06:41:02;;;;;;;2.22;0.85;;;9.10;99.90;;;;;;4996078;28;90159;-32
2022/09/27 06:43:29;;;;;;;2.57;0.80;;;9.10;99.90;;;;;;4998906;28;89197;-30
2022/09/27 06:46:00;;;;;;;6.82;1.02;;;9.10;99.90;;;;;;4998996;28;90268;-33
2022/09/27 06:48:25;;;;;;;2.00;1.30;;;9.10;99.90;;;;;;4999482;28;89253;-31
2022/09/27 06:50:52;;;;;;;3.05;1.00;;;9.10;99.90;;;;;;4999803;28;90152;-33
2022/09/27 06:53:18;;;;;;;3.78;1.00;;;9.10;99.90;;;;;;4998611;28;89520;-32
2022/09/27 06:55:44;;;;;;;1.85;1.25;;;9.20;99.90;;;;;;4999074;28;88948;-29
2022/09/27 07:00:55;;;;;;;2.05;0.90;;;9.20;99.90;;;;;;4999005;28;91113;-33
2022/09/27 07:03:22;;;;;;;1.15;0.57;;;9.20;99.90;;;;;;4998603;28;90020;-32
2022/09/27 07:06:02;;;;;;;3.42;1.40;;;9.20;99.90;;;;;;4999389;28;89219;-30
2022/09/27 07:08:28;;;;;;;3.63;1.08;;;9.20;99.90;;;;;;4998650;28;87623;-31
2022/09/27 07:10:59;;;;;;;1.63;0.60;;;9.20;99.90;;;;;;4999563;28;90320;-31
2022/09/27 07:13:29;;;;;;;4.32;1.77;;;9.30;99.90;;;;;;4998597;28;89072;-30
2022/09/27 07:15:54;;;;;;;2.45;1.35;;;9.30;99.90;;;;;;4999189;28;90109;-30
2022/09/27 07:18:20;;;;;;;1.48;1.13;;;9.30;99.90;;;;;;4998478;28;90156;-34
2022/09/27 07:20:45;;;;;;;5.78;2.33;;;9.40;99.90;;;;;;4998691;28;90449;-31
2022/09/27 07:23:12;;;;;;;3.53;0.95;;;9.50;99.90;;;;;;4998315;28;90571;-30
2022/09/27 07:25:38;;;;;;;3.70;2.08;;;9.50;99.90;;;;;;4999045;28;90441;-33
2022/09/27 07:28:06;;;;;;;1.40;1.30;;;9.60;99.90;;;;;;4999452;28;88568;-32
2022/09/27 07:30:32;;;;;;;1.25;1.15;;;9.70;99.90;;;;;;4998119;28;91230;-30
2022/09/27 07:32:59;;;;;;;5.50;1.65;;;9.80;99.90;;;;;;4998527;28;89515;-33
2022/09/27 07:35:25;;;;;;;8.43;6.43;;;9.90;99.90;;;;;;4998629;28;88157;-32
2022/09/27 07:37:51;;;;;;;5.55;1.33;;;10.00;99.90;;;;;;4998236;28;88844;-31
2022/09/27 07:40:18;;;;;;;3.50;1.33;;;10.20;99.90;;;;;;4998636;28;89846;-30
2022/09/27 07:42:44;;;;;;;1.85;0.82;;;10.30;99.90;;;;;;4998741;28;89561;-30
2022/09/27 07:45:10;;;;;;;2.10;1.15;;;10.30;99.90;;;;;;4998676;28;88438;-32
2022/09/27 07:47:38;;;;;;;5.75;0.90;;;10.40;99.90;;;;;;4977462;28;90292;-33
2022/09/27 07:50:05;;;;;;;1.85;1.02;;;10.60;99.90;;;;;;4978913;28;90533;-29
2022/09/27 07:52:41;;;;;;;2.72;0.98;;;10.90;99.90;;;;;;4977971;28;88414;-35
2022/09/27 07:55:12;;;;;;;5.15;0.88;;;11.10;99.90;;;;;;4978766;28;89248;-31
2022/09/27 07:57:38;;;;;;;2.15;1.08;;;11.30;99.90;;;;;;4978683;28;88004;-30
2022/09/27 08:00:05;;;;;;;2.10;0.60;;;11.30;99.90;;;;;;4978540;28;90899;-29
2022/09/27 08:02:31;;;;;;;0.80;0.60;;;11.30;99.90;;;;;;4978176;28;90585;-30
2022/09/27 08:04:58;;;;;;;1.13;0.70;;;11.20;99.90;;;;;;4978387;28;89754;-34
2022/09/27 08:07:24;;;;;;;2.97;1.10;;;11.20;99.90;;;;;;4978211;28;89804;-30
2022/09/27 08:09:50;;;;;;;1.85;0.80;;;11.10;99.90;;;;;;4977710;28;90145;-30
2022/09/27 08:12:16;;;;;;;2.53;0.70;;;11.10;99.90;;;;;;4973099;28;90238;-33
2022/09/27 08:14:42;;;;;;;1.90;0.75;;;11.20;99.90;;;;;;4978818;28;90332;-32
2022/09/27 08:17:10;;;;;;;3.22;1.30;;;11.30;99.90;;;;;;4978136;28;88294;-30
2022/09/27 08:19:35;;;;;;;2.13;1.08;;;11.40;99.90;;;;;;4977034;28;88966;-30
2022/09/27 08:22:01;;;;;;;0.95;0.75;;;11.50;99.90;;;;;;4977436;28;89606;-33
2022/09/27 08:24:27;;;;;;;2.28;1.02;;;11.70;99.90;;;;;;4977251;28;89255;-33
2022/09/27 08:26:53;;;;;;;8.40;1.92;;;11.80;99.90;;;;;;4978371;28;89251;-34
2022/09/27 08:29:19;;;;;;;4.60;1.38;;;11.80;99.90;;;;;;4977946;28;91223;-29
2022/09/27 08:31:45;;;;;;;2.90;1.13;;;11.80;99.90;;;;;;4976966;28;89555;-32
2022/09/27 08:34:10;;;;;;;2.53;1.08;;;11.90;99.90;;;;;;4977269;28;89504;-31
2022/09/27 08:36:36;;;;;;;2.97;1.55;;;11.90;99.90;;;;;;4977434;28;88607;-33
2022/09/27 08:39:03;;;;;;;4.95;1.55;;;11.90;99.90;;;;;;4978003;28;90732;-31
2022/09/27 08:41:43;;;;;;;2.22;1.05;;;12.00;99.90;;;;;;4978208;28;89395;-32
2022/09/27 08:44:42;;;;;;;0.85;0.80;;;12.10;99.90;;;;;;4977273;28;89090;-32
2022/09/27 08:47:23;;;;;;;2.55;1.25;;;12.30;99.90;;;;;;4992695;28;88505;-30
2022/09/27 08:50:29;;;;;;;0.80;0.57;;;12.40;99.90;;;;;;4979016;28;89152;-32
2022/09/27 08:52:57;;;;;;;1.17;0.70;;;12.40;99.90;;;;;;4965564;28;89782;-31
2022/09/27 08:55:54;;;;;;;2.45;1.13;;;12.50;99.90;;;;;;4996860;28;90225;-31
2022/09/27 08:58:43;;;;;;;3.17;1.20;;;12.50;99.90;;;;;;4996951;28;89081;-30
2022/09/27 09:01:16;;;;;;;4.95;1.33;;;12.50;99.90;;;;;;4997378;28;90291;-32
2022/09/27 09:03:55;;;;;;;1.58;0.93;;;12.50;99.90;;;;;;4995766;28;90427;-32
2022/09/27 09:06:40;;;;;;;1.60;0.80;;;12.50;99.90;;;;;;4996241;28;89356;-32
2022/09/27 09:09:50;;;;;;;1.33;0.85;;;12.60;99.90;;;;;;4997328;28;89535;-32
2022/09/27 09:12:45;;;;;;;2.90;1.27;;;12.60;99.90;;;;;;4995478;28;90220;-34
2022/09/27 09:15:24;;;;;;;3.50;0.95;;;12.60;99.90;;;;;;4996836;28;89378;-36
2022/09/27 09:18:08;;;;;;;1.25;0.93;;;12.80;99.90;;;;;;4997169;28;90171;-30
2022/09/27 09:20:51;;;;;;;1.45;0.43;;;13.00;99.90;;;;;;4996955;28;89679;-30
2022/09/27 09:23:51;;;;;;;1.65;0.57;;;13.20;99.90;;;;;;5000391;28;90418;-30
2022/09/27 09:26:31;;;;;;;0.75;0.63;;;13.40;99.90;;;;;;4996624;28;90017;-32
2022/09/27 09:29:09;;;;;;;0.90;0.55;;;13.60;99.90;;;;;;5000329;28;89792;-32
2022/09/27 09:32:00;;;;;;;0.95;0.60;;;13.70;99.90;;;;;;5000289;28;89063;-29
2022/09/27 09:34:32;;;;;;;1.05;0.73;;;13.70;99.90;;;;;;4999564;28;90758;-30
2022/09/27 09:37:03;;;;;;;0.55;0.40;;;13.80;99.90;;;;;;5000662;28;88744;-30
2022/09/27 09:39:37;;;;;;;4.22;1.52;;;13.80;99.90;;;;;;5000404;28;89697;-32
2022/09/27 09:42:05;;;;;;;9.48;0.98;;;13.80;99.90;;;;;;4999867;28;88752;-29
2022/09/27 09:44:41;;;;;;;1.08;0.45;;;13.90;99.90;;;;;;4998710;28;90352;-31
2022/09/27 09:47:31;;;;;;;2.50;0.95;;;14.10;99.90;;;;;;5000092;28;88723;-31
2022/09/27 09:50:05;;;;;;;2.38;0.60;;;14.20;99.90;;;;;;5000542;28;89615;-30
2022/09/27 09:52:41;;;;;;;2.85;0.70;;;14.20;99.90;;;;;;4999923;28;88323;-33
2022/09/27 09:55:17;;;;;;;2.20;0.80;;;14.00;99.90;;;;;;4999321;28;90231;-32
2022/09/27 09:58:05;;;;;;;3.50;1.42;;;13.60;99.90;;;;;;4999106;28;89530;-32
2022/09/27 10:00:31;;;;;;;1.73;0.60;;;13.30;99.90;;;;;;4999657;28;89475;-31
2022/09/27 10:02:59;;;;;;;4.88;0.73;;;13.00;99.90;;;;;;4999556;28;87871;-31
2022/09/27 10:05:26;;;;;;;2.83;0.60;;;12.80;99.90;;;;;;4999050;28;90360;-33
2022/09/27 10:07:56;;;;;;;3.13;0.90;;;12.60;99.90;;;;;;4999909;28;89474;-33
2022/09/27 10:10:22;;;;;;;1.13;0.90;;;12.50;99.90;;;;;;4999817;28;89402;-33
2022/09/27 10:12:48;;;;;;;2.70;1.02;;;12.50;99.90;;;;;;5000170;28;89526;-30
2022/09/27 10:15:17;;;;;;;1.70;0.60;;;12.40;99.90;;;;;;4999320;28;90301;-30
2022/09/27 10:17:50;;;;;;;2.80;0.77;;;12.40;99.90;;;;;;4999472;28;89862;-30
2022/09/27 10:20:40;;;;;;;1.05;0.77;;;12.40;99.90;;;;;;4999172;28;89365;-30
2022/09/27 10:23:14;;;;;;;2.47;1.05;;;12.40;99.90;;;;;;4999859;28;89833;-31
2022/09/27 10:25:53;;;;;;;0.82;0.82;;;12.40;99.90;;;;;;4999423;28;90227;-30
2022/09/27 10:28:37;;;;;;;0.47;0.30;;;12.40;99.90;;;;;;4987719;28;89721;-32
2022/09/27 10:31:17;;;;;;;2.45;0.85;;;12.50;99.90;;;;;;4999071;28;90073;-29
2022/09/27 10:33:58;;;;;;;3.65;1.02;;;12.60;99.90;;;;;;4999113;28;90003;-32
2022/09/27 10:36:29;;;;;;;1.63;0.77;;;12.80;99.90;;;;;;4972448;28;89789;-30
2022/09/27 10:38:59;;;;;;;0.95;0.75;;;13.00;99.90;;;;;;4963732;28;89626;-30
2022/09/27 10:41:35;;;;;;;1.15;0.75;;;13.10;99.90;;;;;;4998877;28;90233;-31
2022/09/27 10:44:19;;;;;;;2.45;0.75;;;13.30;99.90;;;;;;4999529;28;89794;-32
2022/09/27 10:46:48;;;;;;;6.13;1.33;;;13.40;99.90;;;;;;4998401;28;90387;-33
2022/09/27 10:49:40;;;;;;;2.42;1.35;;;13.40;99.90;;;;;;4997898;28;90689;-33
2022/09/27 10:52:18;;;;;;;1.02;1.00;;;13.50;99.90;;;;;;4995975;28;90097;-30
2022/09/27 10:55:04;;;;;;;5.68;0.57;;;13.60;99.90;;;;;;4999148;28;88722;-29
2022/09/27 10:57:31;;;;;;;1.75;0.68;;;13.60;99.90;;;;;;4998561;28;91544;-33
2022/09/27 11:00:04;;;;;;;7.32;1.10;;;13.80;99.90;;;;;;4999264;28;89833;-33
2022/09/27 11:02:33;;;;;;;6.03;0.73;;;13.80;99.90;;;;;;4984677;28;89593;-31
2022/09/27 11:05:13;;;;;;;3.70;1.30;;;13.70;99.90;;;;;;4972530;28;89163;-31
2022/09/27 11:08:01;;;;;;;1.33;1.23;;;13.80;99.90;;;;;;4977239;28;89814;-31
2022/09/27 11:10:31;;;;;;;2.05;0.50;;;14.20;99.90;;;;;;4976227;28;88974;-31
2022/09/27 11:13:18;;;;;;;0.38;0.20;;;14.30;99.90;;;;;;4978980;28;90352;-31
2022/09/27 11:15:52;;;;;;;0.65;0.35;;;14.20;99.90;;;;;;4977416;28;90195;-32
2022/09/27 11:18:49;;;;;;;0.47;0.28;;;13.80;99.90;;;;;;4978932;28;90403;-29
2022/09/27 11:21:26;;;;;;;0.20;0.20;;;13.40;99.90;;;;;;4978753;28;89273;-30
2022/09/27 11:24:18;;;;;;;1.65;0.55;;;13.10;99.90;;;;;;4972920;28;90466;-30
2022/09/27 11:27:04;;;;;;;0.73;0.55;;;12.90;99.90;;;;;;4971105;28;88867;-31
2022/09/27 11:29:55;;;;;;;0.52;0.52;;;12.80;99.90;;;;;;4979023;28;90322;-32
2022/09/27 11:32:43;;;;;;;3.05;1.23;;;12.80;99.90;;;;;;4978364;28;90497;-33
2022/09/27 11:35:34;;;;;;;0.88;0.77;;;12.80;99.90;;;;;;4968312;28;90374;-32
2022/09/27 11:38:29;;;;;;;1.05;0.82;;;12.70;99.90;;;;;;4978270;28;89102;-31
2022/09/27 11:41:19;;;;;;;1.10;0.50;;;12.40;99.90;;;;;;4964759;28;90217;-32
2022/09/27 11:44:06;;;;;;;1.70;0.77;;;12.20;99.90;;;;;;4973456;28;90891;-31
2022/09/27 11:46:34;;;;;;;3.33;1.33;;;12.10;99.90;;;;;;4988306;28;90388;-29
2022/09/27 11:49:14;;;;;;;1.55;0.75;;;12.00;99.90;;;;;;4998613;28;88756;-32
2022/09/27 11:51:49;;;;;;;0.70;0.60;;;12.00;99.90;;;;;;4998365;28;90309;-31
2022/09/27 11:54:26;;;;;;;0.57;0.50;;;12.10;99.90;;;;;;4997871;28;90995;-30
2022/09/27 11:57:01;;;;;;;0.83;0.70;;;12.10;99.90;;;;;;4998211;28;89583;-34
2022/09/27 11:59:29;;;;;;;2.17;0.90;;;12.10;99.90;;;;;;4998627;28;90320;-30
2022/09/27 12:02:00;;;;;;;;;;;12.10;99.90;;;;;;4999272;28;90971;-30
2022/09/27 12:05:00;;;;;;;1.75;0.75;;;12.00;99.90;;;;;;4999451;28;89747;-34
2022/09/27 12:07:46;;;;;;;1.92;0.65;;;11.90;99.90;;;;;;4997042;28;89396;-31
2022/09/27 12:10:15;;;;;;;2.70;0.80;;;11.70;99.90;;;;;;4997853;28;90232;-33
2022/09/27 12:12:45;;;;;;;0.40;0.40;;;11.50;99.90;;;;;;4997992;28;90086;-32
2022/09/27 12:15:18;;;;;;;0.40;0.40;;;11.40;99.90;;;;;;4998157;28;89450;-31
2022/09/27 12:17:47;;;;;;;0.50;0.40;;;11.30;99.90;;;;;;4998042;28;89932;-32
2022/09/27 12:20:32;;;;;;;1.05;0.40;;;11.30;99.90;;;;;;4997368;28;89532;-30
2022/09/27 12:23:00;;;;;;;0.75;0.57;;;11.20;99.90;;;;;;4998200;28;89873;-33
2022/09/27 12:25:30;;;;;;;0.40;0.40;;;11.20;99.90;;;;;;4997884;28;90768;-31
2022/09/27 12:28:26;;;;;;;0.30;0.30;;;11.30;99.90;;;;;;4999183;28;89719;-30
2022/09/27 12:31:00;;;;;;;1.13;0.60;;;11.30;99.90;;;;;;4983069;28;91262;-31
2022/09/27 12:33:43;;;;;;;0.30;0.30;;;11.40;99.90;;;;;;4997358;28;90240;-32
2022/09/27 12:36:16;;;;;;;1.10;0.45;;;11.50;99.90;;;;;;4997089;28;90672;-32
2022/09/27 12:39:17;;;;;;;3.70;0.98;;;11.50;99.90;;;;;;4998108;28;90294;-33
2022/09/27 12:41:48;;;;;;;4.63;1.25;;;11.50;99.90;;;;;;4997774;28;88543;-31
2022/09/27 12:44:14;;;;;;;0.63;0.63;;;11.50;99.90;;;;;;4996908;28;90534;-33
2022/09/27 12:46:42;;;;;;;4.47;1.13;;;11.50;99.90;;;;;;5031118;22;89772;-32
2022/09/27 12:49:46;;;;;;;1.95;0.50;;;11.60;99.90;;;;;;4977353;28;89261;-30
2022/09/27 12:52:22;;;;;;;0.60;0.43;;;11.80;99.90;;;;;;4946741;28;88816;-33
2022/09/27 12:54:50;;;;;;;0.57;0.50;;;11.90;99.90;;;;;;4977711;28;90023;-30
2022/09/27 12:57:43;;;;;;;0.52;0.52;;;12.00;99.90;;;;;;4977165;28;89711;-31
2022/09/27 13:00:13;;;;;;;0.40;0.40;;;12.10;99.90;;;;;;4977345;28;90346;-33
2022/09/27 13:03:20;;;;;;;1.13;0.65;;;12.10;99.90;;;;;;4963190;28;90007;-30
2022/09/27 13:06:22;;;;;;;1.67;0.40;;;12.20;99.90;;;;;;4977314;28;91609;-31
2022/09/27 13:08:53;;;;;;;0.85;0.70;;;12.20;99.90;;;;;;4977492;28;89880;-29
2022/09/27 13:11:57;;;;;;;0.60;0.57;;;12.30;99.90;;;;;;4977220;28;89793;-32
2022/09/27 13:14:29;;;;;;;0.52;0.40;;;12.30;99.90;;;;;;4977672;28;89570;-31
2022/09/27 13:16:54;;;;;;;1.00;0.45;;;12.30;99.90;;;;;;4971588;28;90371;-33
2022/09/27 13:19:41;;;;;;;3.10;0.70;;;12.40;99.90;;;;;;4972125;28;89684;-31
2022/09/27 13:22:27;;;;;;;3.67;0.88;;;12.40;99.90;;;;;;4969759;28;89354;-31
2022/09/27 13:24:53;;;;;;;3.97;1.25;;;12.40;99.90;;;;;;4956619;28;90003;-33
2022/09/27 13:27:22;;;;;;;0.65;0.47;;;12.40;99.90;;;;;;4977085;28;90375;-31